National Weather Service United States Department of Commerce

Severe thunderstorms possible over the Mid Atlantic and Northeast U.S.

Severe thunderstorms may develop Monday afternoon and evening over portions of the Mid Atlantic and Northeast U.S. A few of the storms could contain damaging winds, large hail, and heavy rainfall. The severe weather threat will shift to the upper Midwest and Great Lakes by Tuesday and Wednesday of this week. Read More >


683
FTPA31 PHFO 240544
TAFSTU
TAF
NSTU 240544Z 2406/2506 14011KT P6SM SCT025
FM241200 11010KT P6SM VCSH FEW020 BKN040 OVC100=


000
SAZS31 NSTU 240651
MTRPPG
METAR NSTU 240650Z 14008KT 10SM SCT025 26/25 A2985 RMK SLP108
T02640251=



METAR Formatted Surface Weather Observation  Issued: 07/23/2017 07:07:09 PM SST

NSTU Observation History

 

Significant Weather Charts